createdAt,value
2023-03-29T00:00:00.437Z,6.4
2023-03-29T00:01:00.774Z,6.4
2023-03-29T00:02:00.508Z,6.2
2023-03-29T00:03:00.403Z,6.2
2023-03-29T00:04:02.444Z,6.2
2023-03-29T00:05:00.352Z,6.2
2023-03-29T00:06:01.002Z,6.4
2023-03-29T00:07:00.253Z,6.4
2023-03-29T00:08:00.383Z,6.4
2023-03-29T00:09:00.336Z,6.4
2023-03-29T00:10:00.837Z,6.4
2023-03-29T00:11:00.554Z,6.4
2023-03-29T00:12:00.442Z,6.4
2023-03-29T00:13:00.867Z,6.4
2023-03-29T00:14:00.268Z,6.3
2023-03-29T00:15:00.359Z,6.3
2023-03-29T00:16:00.283Z,6.4
2023-03-29T00:17:00.281Z,6.4
2023-03-29T00:18:00.270Z,6.3
2023-03-29T00:19:00.264Z,6.3
2023-03-29T00:20:00.269Z,6.2
2023-03-29T00:21:00.870Z,6.2
2023-03-29T00:22:00.878Z,6.1
2023-03-29T00:23:00.266Z,6.1
2023-03-29T00:24:00.303Z,6.2
2023-03-29T00:25:00.275Z,6.2
2023-03-29T00:26:00.285Z,6.3
2023-03-29T00:27:00.333Z,6.3
2023-03-29T00:28:00.296Z,6.3
2023-03-29T00:29:00.290Z,6.3
2023-03-29T00:30:00.292Z,6.3
2023-03-29T00:31:09.229Z,6.3
2023-03-29T00:32:00.247Z,6.2
2023-03-29T00:33:00.286Z,6.2
2023-03-29T00:34:00.286Z,6.3
2023-03-29T00:35:00.257Z,6.3
2023-03-29T00:36:00.504Z,6.3
2023-03-29T00:37:00.555Z,6.3
2023-03-29T00:38:00.266Z,6.4
2023-03-29T00:39:00.266Z,6.4
2023-03-29T00:40:00.287Z,6.4
2023-03-29T00:41:00.473Z,6.4
2023-03-29T00:42:00.270Z,6.4
2023-03-29T00:43:00.271Z,6.4
2023-03-29T00:44:01.658Z,6.4
2023-03-29T00:45:03.466Z,6.4
2023-03-29T00:46:00.435Z,6.4
2023-03-29T00:47:00.263Z,6.4
2023-03-29T00:48:01.724Z,6.5
2023-03-29T00:49:04.003Z,6.5
2023-03-29T00:50:03.879Z,6.4
2023-03-29T00:51:04.848Z,6.4
2023-03-29T00:52:00.313Z,6.3
2023-03-29T00:53:03.671Z,6.3
2023-03-29T00:54:02.296Z,6.4
2023-03-29T00:55:02.680Z,6.4
2023-03-29T00:56:10.211Z,6.4
2023-03-29T00:57:00.338Z,6.4
2023-03-29T00:58:01.416Z,6.4
2023-03-29T00:59:05.607Z,6.4
2023-03-29T01:00:01.290Z,6.6
2023-03-29T01:01:05.145Z,6.6
2023-03-29T01:02:01.994Z,6.5
2023-03-29T01:03:03.715Z,6.5
2023-03-29T01:04:03.445Z,6.5
2023-03-29T01:05:03.037Z,6.5
2023-03-29T01:06:03.889Z,6.5
2023-03-29T01:07:08.053Z,6.5
2023-03-29T01:08:02.236Z,6.6
2023-03-29T01:09:01.913Z,6.6
2023-03-29T01:10:05.461Z,6.5
2023-03-29T01:11:04.911Z,6.5
2023-03-29T01:12:01.683Z,6.5
2023-03-29T01:13:03.687Z,6.5
2023-03-29T01:14:01.928Z,6.6
2023-03-29T01:15:03.682Z,6.6
2023-03-29T01:16:01.208Z,6.5
2023-03-29T01:17:00.343Z,6.5
2023-03-29T01:18:00.437Z,6.6
2023-03-29T01:19:00.405Z,6.6
2023-03-29T01:20:03.756Z,6.5
2023-03-29T01:21:10.211Z,6.5
2023-03-29T01:22:09.020Z,6.5
2023-03-29T01:23:10.215Z,6.5
2023-03-29T01:24:10.213Z,6.5
2023-03-29T01:25:01.304Z,6.5
2023-03-29T01:26:10.216Z,6.5
2023-03-29T01:27:10.208Z,6.5
2023-03-29T01:28:02.668Z,6.5
2023-03-29T01:29:05.057Z,6.5
2023-03-29T01:30:02.209Z,6.6
2023-03-29T01:31:01.453Z,6.6
2023-03-29T01:32:07.485Z,6.5
2023-03-29T01:33:03.679Z,6.5
2023-03-29T01:34:04.395Z,6.5
2023-03-29T01:35:04.822Z,6.5
2023-03-29T01:36:04.271Z,6.5
2023-03-29T01:37:04.650Z,6.5
2023-03-29T01:38:05.032Z,6.5
2023-03-29T01:39:01.498Z,6.5
2023-03-29T01:40:00.346Z,6.6
2023-03-29T01:41:00.785Z,6.6
2023-03-29T01:42:08.857Z,6.5
2023-03-29T01:43:03.529Z,6.5
2023-03-29T01:44:04.712Z,6.5
2023-03-29T01:45:05.913Z,6.5
2023-03-29T01:46:00.320Z,6.6
2023-03-29T01:47:09.612Z,6.6
2023-03-29T01:48:07.164Z,6.6
2023-03-29T01:49:04.123Z,6.6
2023-03-29T01:50:05.604Z,6.6
2023-03-29T01:51:10.205Z,6.6
2023-03-29T01:52:04.089Z,6.7
2023-03-29T01:53:04.088Z,6.7
2023-03-29T01:54:03.514Z,6.6
2023-03-29T01:55:04.345Z,6.6
2023-03-29T01:56:04.483Z,6.7
2023-03-29T01:57:01.268Z,6.7
2023-03-29T01:58:02.357Z,6.7
2023-03-29T01:59:02.497Z,6.7
2023-03-29T02:00:00.653Z,6.7
2023-03-29T02:01:01.421Z,6.7
2023-03-29T02:02:02.915Z,6.6
2023-03-29T02:03:03.325Z,6.6
2023-03-29T02:04:02.446Z,6.7
2023-03-29T02:05:00.387Z,6.7
2023-03-29T02:06:01.640Z,6.7
2023-03-29T02:07:01.963Z,6.7
2023-03-29T02:08:02.570Z,6.7
2023-03-29T02:09:00.281Z,6.7
2023-03-29T02:10:00.442Z,6.7
2023-03-29T02:11:00.549Z,6.7
2023-03-29T02:12:01.060Z,6.8
2023-03-29T02:13:00.290Z,6.8
2023-03-29T02:14:00.272Z,6.7
2023-03-29T02:15:00.261Z,6.7
2023-03-29T02:16:02.185Z,6.7
2023-03-29T02:17:10.215Z,6.7
2023-03-29T02:18:00.320Z,6.7
2023-03-29T02:19:00.323Z,6.7
2023-03-29T02:20:03.658Z,6.7
2023-03-29T02:21:01.128Z,6.7
2023-03-29T02:22:06.184Z,6.7
2023-03-29T02:23:10.204Z,6.7
2023-03-29T02:24:03.418Z,6.8
2023-03-29T02:25:01.959Z,6.8
2023-03-29T02:26:01.148Z,6.8
2023-03-29T02:27:00.256Z,6.8
2023-03-29T02:28:00.515Z,6.8
2023-03-29T02:29:00.580Z,6.8
2023-03-29T02:30:00.274Z,6.8
2023-03-29T02:31:04.806Z,6.8
2023-03-29T02:32:04.695Z,6.8
2023-03-29T02:33:08.884Z,6.8
2023-03-29T02:34:03.635Z,6.8
2023-03-29T02:35:06.144Z,6.8
2023-03-29T02:36:10.346Z,6.8
2023-03-29T02:37:02.723Z,6.8
2023-03-29T02:38:02.005Z,6.8
2023-03-29T02:39:01.304Z,6.8
2023-03-29T02:40:00.407Z,6.9
2023-03-29T02:41:01.369Z,6.9
2023-03-29T02:42:01.953Z,6.8
2023-03-29T02:43:00.752Z,6.8
2023-03-29T02:44:02.093Z,6.8
2023-03-29T02:45:00.905Z,6.8
2023-03-29T02:46:01.828Z,6.8
2023-03-29T02:47:04.588Z,6.8
2023-03-29T02:48:02.567Z,7.0
2023-03-29T02:49:00.260Z,7.0
2023-03-29T02:50:00.371Z,6.9
2023-03-29T02:51:02.283Z,6.9
2023-03-29T02:52:03.744Z,6.9
2023-03-29T02:53:03.091Z,6.9
2023-03-29T02:54:04.991Z,6.8
2023-03-29T02:55:01.543Z,6.8
2023-03-29T02:56:00.403Z,6.8
2023-03-29T02:57:02.412Z,6.8
2023-03-29T02:58:00.747Z,6.9
2023-03-29T02:59:00.259Z,6.9
2023-03-29T03:00:00.286Z,6.9
2023-03-29T03:01:01.263Z,6.9
2023-03-29T03:02:00.319Z,6.9
2023-03-29T03:03:02.032Z,6.9
2023-03-29T03:04:00.330Z,6.9
2023-03-29T03:05:00.274Z,6.9
2023-03-29T03:06:00.469Z,6.8
2023-03-29T03:07:00.668Z,6.8
2023-03-29T03:08:00.297Z,6.9
2023-03-29T03:09:00.282Z,6.9
2023-03-29T03:10:00.257Z,6.9
2023-03-29T03:11:00.493Z,6.9
2023-03-29T03:12:00.297Z,7.0
2023-03-29T03:13:00.635Z,7.0
2023-03-29T03:14:00.279Z,6.9
2023-03-29T03:15:00.283Z,6.9
2023-03-29T03:16:00.295Z,7.0
2023-03-29T03:17:01.755Z,7.0
2023-03-29T03:18:00.851Z,7.0
2023-03-29T03:19:00.296Z,7.0
2023-03-29T03:20:00.255Z,7.0
2023-03-29T03:21:00.609Z,7.0
2023-03-29T03:22:00.276Z,6.9
2023-03-29T03:23:00.779Z,6.9
2023-03-29T03:24:00.270Z,6.9
2023-03-29T03:25:00.245Z,6.9
2023-03-29T03:26:00.297Z,7.0
2023-03-29T03:27:00.249Z,7.0
2023-03-29T03:28:00.464Z,7.0
2023-03-29T03:29:00.420Z,7.0
2023-03-29T03:30:00.259Z,7.0
2023-03-29T03:31:00.451Z,7.0
2023-03-29T03:32:00.282Z,6.9
2023-03-29T03:33:00.588Z,6.9
2023-03-29T03:34:00.300Z,6.9
2023-03-29T03:35:00.492Z,6.9
2023-03-29T03:36:00.302Z,6.9
2023-03-29T03:37:00.268Z,6.9
2023-03-29T03:38:00.257Z,6.9
2023-03-29T03:39:00.528Z,6.9
2023-03-29T03:40:00.275Z,6.9
2023-03-29T03:41:00.955Z,6.9
2023-03-29T03:42:00.240Z,6.9
2023-03-29T03:43:00.251Z,6.9
2023-03-29T03:44:00.411Z,7.0
2023-03-29T03:45:00.285Z,7.0
2023-03-29T03:46:00.636Z,7.0
2023-03-29T03:47:00.250Z,7.0
2023-03-29T03:48:00.344Z,7.0
2023-03-29T03:49:00.245Z,7.0
2023-03-29T03:50:00.249Z,7.0
2023-03-29T03:51:00.628Z,7.0
2023-03-29T03:52:00.274Z,7.0
2023-03-29T03:53:00.268Z,7.0
2023-03-29T03:54:00.289Z,7.0
2023-03-29T03:55:00.287Z,7.0
2023-03-29T03:56:00.270Z,7.0
2023-03-29T03:57:00.287Z,7.0
2023-03-29T03:58:00.698Z,7.0
2023-03-29T03:59:00.284Z,7.0
2023-03-29T04:00:00.246Z,7.0
2023-03-29T04:01:00.466Z,7.0
2023-03-29T04:02:00.452Z,6.9
2023-03-29T04:03:00.360Z,6.9
2023-03-29T04:04:00.395Z,7.0
2023-03-29T04:05:00.261Z,7.0
2023-03-29T04:06:00.719Z,7.0
2023-03-29T04:07:00.636Z,7.0
2023-03-29T04:08:00.270Z,6.9
2023-03-29T04:09:00.271Z,6.9
2023-03-29T04:10:00.255Z,7.0
2023-03-29T04:11:00.933Z,7.0
2023-03-29T04:12:00.286Z,7.0
2023-03-29T04:13:00.900Z,7.0
2023-03-29T04:14:00.395Z,7.1
2023-03-29T04:15:00.655Z,7.1
2023-03-29T04:16:01.838Z,7.1
2023-03-29T04:17:00.358Z,7.1
2023-03-29T04:18:00.375Z,7.1
2023-03-29T04:19:00.291Z,7.1
2023-03-29T04:20:00.291Z,7.1
2023-03-29T04:21:00.450Z,7.1
2023-03-29T04:22:00.267Z,7.1
2023-03-29T04:23:00.682Z,7.1
2023-03-29T04:24:00.256Z,7.1
2023-03-29T04:25:00.248Z,7.1
2023-03-29T04:26:00.312Z,7.1
2023-03-29T04:27:00.250Z,7.1
2023-03-29T04:28:00.503Z,7.1
2023-03-29T04:29:00.254Z,7.1
2023-03-29T04:30:00.295Z,7.1
2023-03-29T04:31:00.554Z,7.1
2023-03-29T04:32:00.294Z,7.1
2023-03-29T04:33:00.315Z,7.1
2023-03-29T04:34:00.594Z,7.1
2023-03-29T04:35:00.518Z,7.1
2023-03-29T04:36:00.354Z,7.1
2023-03-29T04:37:00.252Z,7.1
2023-03-29T04:38:00.285Z,7.1
2023-03-29T04:39:00.273Z,7.1
2023-03-29T04:40:00.363Z,7.1
2023-03-29T04:41:00.926Z,7.1
2023-03-29T04:42:00.274Z,7.1
2023-03-29T04:43:00.367Z,7.1
2023-03-29T04:44:00.277Z,7.0
2023-03-29T04:45:00.536Z,7.0
2023-03-29T04:46:00.564Z,7.1
2023-03-29T04:47:00.387Z,7.1
2023-03-29T04:48:00.313Z,7.1
2023-03-29T04:49:00.271Z,7.1
2023-03-29T04:50:00.345Z,7.1
2023-03-29T04:51:00.427Z,7.1
2023-03-29T04:52:00.260Z,7.1
2023-03-29T04:53:00.420Z,7.1
2023-03-29T04:54:00.300Z,7.0
2023-03-29T04:55:00.724Z,7.0
2023-03-29T04:56:00.289Z,7.2
2023-03-29T04:57:00.355Z,7.2
2023-03-29T04:58:00.260Z,7.1
2023-03-29T04:59:00.284Z,7.1
2023-03-29T05:00:00.420Z,7.1
2023-03-29T05:01:00.371Z,7.1
2023-03-29T05:02:00.297Z,7.1
2023-03-29T05:03:00.373Z,7.1
2023-03-29T05:04:00.307Z,7.1
2023-03-29T05:05:00.270Z,7.1
2023-03-29T05:06:02.603Z,7.1
2023-03-29T05:07:00.267Z,7.1
2023-03-29T05:08:00.277Z,7.1
2023-03-29T05:09:00.267Z,7.1
2023-03-29T05:10:00.312Z,7.1
2023-03-29T05:11:00.517Z,7.1
2023-03-29T05:12:00.578Z,7.1
2023-03-29T05:13:00.634Z,7.1
2023-03-29T05:14:00.314Z,7.2
2023-03-29T05:15:00.261Z,7.2
2023-03-29T05:16:00.519Z,7.2
2023-03-29T05:17:00.255Z,7.2
2023-03-29T05:18:00.479Z,7.2
2023-03-29T05:19:00.441Z,7.2
2023-03-29T05:20:00.303Z,7.2
2023-03-29T05:21:00.845Z,7.2
2023-03-29T05:22:00.256Z,7.2
2023-03-29T05:23:00.286Z,7.2
2023-03-29T05:24:00.494Z,7.2
2023-03-29T05:25:00.256Z,7.2
2023-03-29T05:26:00.310Z,7.2
2023-03-29T05:27:00.280Z,7.2
2023-03-29T05:28:00.319Z,7.1
2023-03-29T05:29:00.267Z,7.1
2023-03-29T05:30:00.466Z,7.1
2023-03-29T05:31:01.849Z,7.1
2023-03-29T05:32:00.322Z,7.1
2023-03-29T05:33:00.839Z,7.1
2023-03-29T05:34:00.270Z,7.2
2023-03-29T05:35:00.268Z,7.2
2023-03-29T05:36:01.070Z,7.3
2023-03-29T05:37:00.258Z,7.3
2023-03-29T05:38:00.542Z,7.2
2023-03-29T05:39:00.249Z,7.2
2023-03-29T05:40:05.783Z,7.4
2023-03-29T05:41:01.267Z,7.4
2023-03-29T05:42:00.255Z,7.4
2023-03-29T05:43:00.282Z,7.4
2023-03-29T05:44:00.280Z,7.4
2023-03-29T05:45:00.282Z,7.4
2023-03-29T05:46:00.304Z,7.3
2023-03-29T05:47:00.283Z,7.3
2023-03-29T05:48:00.350Z,7.3
2023-03-29T05:49:00.387Z,7.3
2023-03-29T05:50:00.274Z,7.4
2023-03-29T05:51:00.575Z,7.4
2023-03-29T05:52:00.259Z,7.3
2023-03-29T05:53:00.262Z,7.3
2023-03-29T05:54:00.420Z,7.3
2023-03-29T05:55:00.323Z,7.3
2023-03-29T05:56:00.388Z,7.3
2023-03-29T05:57:00.327Z,7.3
2023-03-29T05:58:00.252Z,7.4
2023-03-29T05:59:00.247Z,7.4
2023-03-29T06:00:00.269Z,7.4
2023-03-29T06:01:00.512Z,7.4
2023-03-29T06:02:00.416Z,7.3
2023-03-29T06:03:10.190Z,7.3
2023-03-29T06:04:00.366Z,7.3
2023-03-29T06:05:00.358Z,7.3
2023-03-29T06:06:01.019Z,7.4
2023-03-29T06:07:00.260Z,7.4
2023-03-29T06:08:00.602Z,7.3
2023-03-29T06:09:00.271Z,7.3
2023-03-29T06:10:00.579Z,7.4
2023-03-29T06:11:04.322Z,7.4
2023-03-29T06:12:00.253Z,7.4
2023-03-29T06:13:00.264Z,7.4
2023-03-29T06:14:00.262Z,7.5
2023-03-29T06:15:00.254Z,7.5
2023-03-29T06:16:00.436Z,7.5
2023-03-29T06:17:00.367Z,7.5
2023-03-29T06:18:00.798Z,7.6
2023-03-29T06:19:00.261Z,7.6
2023-03-29T06:20:00.415Z,7.4
2023-03-29T06:21:00.709Z,7.4
2023-03-29T06:22:00.247Z,7.7
2023-03-29T06:23:00.270Z,7.7
2023-03-29T06:24:00.289Z,7.8
2023-03-29T06:25:00.255Z,7.8
2023-03-29T06:26:00.393Z,7.7
2023-03-29T06:27:00.275Z,7.7
2023-03-29T06:28:00.265Z,7.7
2023-03-29T06:29:00.284Z,7.7
2023-03-29T06:30:00.334Z,7.9
2023-03-29T06:31:00.529Z,7.9
2023-03-29T06:32:00.284Z,7.8
2023-03-29T06:33:00.326Z,7.8
2023-03-29T06:34:00.366Z,7.8
2023-03-29T06:35:00.391Z,7.8
2023-03-29T06:36:00.271Z,7.9
2023-03-29T06:37:00.259Z,7.9
2023-03-29T06:38:00.426Z,8.0
2023-03-29T06:39:00.278Z,8.0
2023-03-29T06:40:00.333Z,7.9
2023-03-29T06:41:01.543Z,7.9
2023-03-29T06:42:05.257Z,7.9
2023-03-29T06:43:00.265Z,7.9
2023-03-29T06:44:00.254Z,7.9
2023-03-29T06:45:00.308Z,7.9
2023-03-29T06:46:00.379Z,8.0
2023-03-29T06:47:00.279Z,8.0
2023-03-29T06:48:00.558Z,7.9
2023-03-29T06:49:00.258Z,7.9
2023-03-29T06:50:00.255Z,8.0
2023-03-29T06:51:00.454Z,8.0
2023-03-29T06:52:00.384Z,8.1
2023-03-29T06:53:00.266Z,8.1
2023-03-29T06:54:00.262Z,8.0
2023-03-29T06:55:00.254Z,8.0
2023-03-29T06:56:00.307Z,8.1
2023-03-29T06:57:00.471Z,8.1
2023-03-29T06:58:02.237Z,8.2
2023-03-29T06:59:00.262Z,8.2
2023-03-29T07:00:00.268Z,8.2
2023-03-29T07:01:00.888Z,8.2
2023-03-29T07:02:00.343Z,8.2
2023-03-29T07:03:03.331Z,8.2
2023-03-29T07:04:00.290Z,8.3
2023-03-29T07:05:00.259Z,8.3
2023-03-29T07:06:01.054Z,8.4
2023-03-29T07:07:00.271Z,8.4
2023-03-29T07:08:00.417Z,8.5
2023-03-29T07:09:00.254Z,8.5
2023-03-29T07:10:00.267Z,8.4
2023-03-29T07:11:00.520Z,8.4
2023-03-29T07:12:00.303Z,8.4
2023-03-29T07:13:00.279Z,8.4
2023-03-29T07:14:00.291Z,8.5
2023-03-29T07:15:00.282Z,8.5
2023-03-29T07:16:00.317Z,8.6
2023-03-29T07:17:00.250Z,8.6
2023-03-29T07:18:00.662Z,8.6
2023-03-29T07:19:00.271Z,8.6
2023-03-29T07:20:00.250Z,8.6
2023-03-29T07:21:00.842Z,8.6
2023-03-29T07:22:00.243Z,8.6
2023-03-29T07:23:00.276Z,8.6
2023-03-29T07:24:00.278Z,8.6
2023-03-29T07:25:00.256Z,8.6
2023-03-29T07:26:00.596Z,8.7
2023-03-29T07:27:03.743Z,8.7
2023-03-29T07:28:00.300Z,8.7
2023-03-29T07:29:00.262Z,8.7
2023-03-29T07:30:00.386Z,8.8
2023-03-29T07:31:01.531Z,8.8
2023-03-29T07:32:00.355Z,8.9
2023-03-29T07:33:00.508Z,8.9
2023-03-29T07:34:00.263Z,9.0
2023-03-29T07:35:00.269Z,9.0
2023-03-29T07:36:00.422Z,8.9
2023-03-29T07:37:00.265Z,8.9
2023-03-29T07:38:00.257Z,8.9
2023-03-29T07:39:00.276Z,8.9
2023-03-29T07:40:00.255Z,9.0
2023-03-29T07:41:02.040Z,9.0
2023-03-29T07:42:00.280Z,9.0
2023-03-29T07:43:00.293Z,9.0
2023-03-29T07:44:01.962Z,9.1
2023-03-29T07:45:00.247Z,9.1
2023-03-29T07:46:00.787Z,9.1
2023-03-29T07:47:00.860Z,9.1
2023-03-29T07:48:00.365Z,9.1
2023-03-29T07:49:00.438Z,9.1
2023-03-29T07:50:00.443Z,9.1
2023-03-29T07:51:00.510Z,9.1
2023-03-29T07:52:00.266Z,9.1
2023-03-29T07:53:00.284Z,9.1
2023-03-29T07:54:00.291Z,9.1
2023-03-29T07:55:00.256Z,9.1
2023-03-29T07:56:00.278Z,9.2
2023-03-29T07:57:00.307Z,9.2
2023-03-29T07:58:00.260Z,9.2
2023-03-29T07:59:00.257Z,9.2
2023-03-29T08:00:00.321Z,9.3
2023-03-29T08:01:00.683Z,9.3
2023-03-29T08:02:00.264Z,9.3
2023-03-29T08:03:00.271Z,9.3
2023-03-29T08:04:00.426Z,9.3
2023-03-29T08:05:00.297Z,9.3
2023-03-29T08:06:00.990Z,9.3
2023-03-29T08:07:00.250Z,9.3
2023-03-29T08:08:00.263Z,9.4
2023-03-29T08:09:00.264Z,9.4
2023-03-29T08:10:00.259Z,9.3
2023-03-29T08:11:00.384Z,9.3
2023-03-29T08:12:00.275Z,9.4
2023-03-29T08:13:02.698Z,9.4
2023-03-29T08:14:00.368Z,9.4
2023-03-29T08:15:00.260Z,9.4
2023-03-29T08:16:00.282Z,9.6
2023-03-29T08:17:00.368Z,9.6
2023-03-29T08:18:00.287Z,9.4
2023-03-29T08:19:00.268Z,9.4
2023-03-29T08:20:00.648Z,9.5
2023-03-29T08:21:00.589Z,9.5
2023-03-29T08:22:00.290Z,9.6
2023-03-29T08:23:00.273Z,9.6
2023-03-29T08:24:00.268Z,9.6
2023-03-29T08:25:00.469Z,9.6
2023-03-29T08:26:00.595Z,9.6
2023-03-29T08:27:00.267Z,9.6
2023-03-29T08:28:00.263Z,9.7
2023-03-29T08:29:00.258Z,9.7
2023-03-29T08:30:00.302Z,9.7
2023-03-29T08:31:00.465Z,9.7
2023-03-29T08:32:00.285Z,9.8
2023-03-29T08:33:00.303Z,9.8
2023-03-29T08:34:00.259Z,9.8
2023-03-29T08:35:00.269Z,9.8
2023-03-29T08:36:00.274Z,9.8
2023-03-29T08:37:00.624Z,9.8
2023-03-29T08:38:00.293Z,9.7
2023-03-29T08:39:00.260Z,9.7
2023-03-29T08:40:00.640Z,9.8
2023-03-29T08:41:00.337Z,9.8
2023-03-29T08:42:01.260Z,9.8
2023-03-29T08:43:05.847Z,9.8
2023-03-29T08:44:10.187Z,9.8
2023-03-29T08:45:10.219Z,9.8
2023-03-29T08:46:10.245Z,9.8
2023-03-29T08:47:10.204Z,9.8
2023-03-29T08:48:00.299Z,9.7
2023-03-29T08:49:02.154Z,9.7
2023-03-29T08:50:00.350Z,9.8
2023-03-29T08:51:03.721Z,9.8
2023-03-29T08:52:01.526Z,9.8
2023-03-29T08:53:02.986Z,9.8
2023-03-29T08:54:03.717Z,9.8
2023-03-29T08:55:02.106Z,9.8
2023-03-29T08:56:03.492Z,10.0
2023-03-29T08:57:05.352Z,10.0
2023-03-29T08:58:01.844Z,10.0
2023-03-29T08:59:00.509Z,10.0
2023-03-29T09:00:01.443Z,10.2
2023-03-29T09:01:02.965Z,10.2
2023-03-29T09:02:02.895Z,10.3
2023-03-29T09:03:00.449Z,10.3
2023-03-29T09:04:03.740Z,10.4
2023-03-29T09:05:06.489Z,10.4
2023-03-29T09:06:04.817Z,10.4
2023-03-29T09:07:01.758Z,10.4
2023-03-29T09:08:00.336Z,10.4
2023-03-29T09:09:00.287Z,10.4
2023-03-29T09:10:00.303Z,10.5
2023-03-29T09:11:00.512Z,10.5
2023-03-29T09:12:03.528Z,10.6
2023-03-29T09:13:08.903Z,10.6
2023-03-29T09:14:01.286Z,10.6
2023-03-29T09:15:01.308Z,10.6
2023-03-29T09:16:10.273Z,10.6
2023-03-29T09:17:10.197Z,10.6
2023-03-29T09:18:09.680Z,10.7
2023-03-29T09:19:10.202Z,10.7
2023-03-29T09:20:10.209Z,10.8
2023-03-29T09:21:08.495Z,10.8
2023-03-29T09:22:07.730Z,10.9
2023-03-29T09:23:06.156Z,10.9
2023-03-29T09:24:00.255Z,11.1
2023-03-29T09:25:10.185Z,11.1
2023-03-29T09:26:01.278Z,11.0
2023-03-29T09:27:10.207Z,11.0
2023-03-29T09:28:03.535Z,11.1
2023-03-29T09:29:10.204Z,11.1
2023-03-29T09:30:05.715Z,11.2
2023-03-29T09:31:10.232Z,11.2
2023-03-29T09:32:02.299Z,11.2
2023-03-29T09:33:10.226Z,11.2
2023-03-29T09:34:04.959Z,11.2
2023-03-29T09:35:01.249Z,11.2
2023-03-29T09:36:03.675Z,11.4
2023-03-29T09:37:01.258Z,11.4
2023-03-29T09:38:01.745Z,11.3
2023-03-29T09:39:00.549Z,11.3
2023-03-29T09:40:05.017Z,11.3
2023-03-29T09:41:06.026Z,11.3
2023-03-29T09:42:01.575Z,11.2
2023-03-29T09:43:02.617Z,11.2
2023-03-29T09:44:04.707Z,11.3
2023-03-29T09:45:02.207Z,11.3
2023-03-29T09:46:02.593Z,11.2
2023-03-29T09:47:05.114Z,11.2
2023-03-29T09:48:09.086Z,11.2
2023-03-29T09:49:00.800Z,11.2
2023-03-29T09:50:03.524Z,11.2
2023-03-29T09:51:01.038Z,11.2
2023-03-29T09:52:03.244Z,11.2
2023-03-29T09:53:00.308Z,11.2
2023-03-29T09:54:00.338Z,11.4
2023-03-29T09:55:00.704Z,11.4
2023-03-29T09:56:00.808Z,11.5
2023-03-29T09:57:00.354Z,11.5
2023-03-29T09:58:01.268Z,11.6
2023-03-29T09:59:00.252Z,11.6
2023-03-29T10:00:01.322Z,11.4
2023-03-29T10:01:02.053Z,11.4
2023-03-29T10:02:04.873Z,11.4
2023-03-29T10:03:00.516Z,11.4
2023-03-29T10:04:00.298Z,11.3
2023-03-29T10:05:03.143Z,11.3
2023-03-29T10:06:02.271Z,11.4
2023-03-29T10:07:00.436Z,11.4
2023-03-29T10:08:00.493Z,11.4
2023-03-29T10:09:00.344Z,11.4
2023-03-29T10:10:00.322Z,11.2
2023-03-29T10:11:02.693Z,11.2
2023-03-29T10:12:04.085Z,11.4
2023-03-29T10:13:02.771Z,11.4
2023-03-29T10:14:04.797Z,11.5
2023-03-29T10:15:00.359Z,11.5
2023-03-29T10:16:04.801Z,11.5
2023-03-29T10:17:03.031Z,11.5
2023-03-29T10:18:01.723Z,11.4
2023-03-29T10:19:10.194Z,11.4
2023-03-29T10:20:03.773Z,11.4
2023-03-29T10:21:02.768Z,11.4
2023-03-29T10:22:10.190Z,11.1
2023-03-29T10:23:00.280Z,11.1
2023-03-29T10:24:00.249Z,11.1
2023-03-29T10:25:00.371Z,11.1
2023-03-29T10:26:01.436Z,11.0
2023-03-29T10:27:01.763Z,11.0
2023-03-29T10:28:05.701Z,11.1
2023-03-29T10:29:02.029Z,11.1
2023-03-29T10:30:07.069Z,11.2
2023-03-29T10:31:00.889Z,11.2
2023-03-29T10:32:00.418Z,11.2
2023-03-29T10:33:00.418Z,11.2
2023-03-29T10:34:01.968Z,11.3
2023-03-29T10:35:07.108Z,11.3
2023-03-29T10:36:03.378Z,11.4
2023-03-29T10:37:01.054Z,11.4
2023-03-29T10:38:03.303Z,11.4
2023-03-29T10:39:05.574Z,11.4
2023-03-29T10:40:00.365Z,11.4
2023-03-29T10:41:04.183Z,11.4
2023-03-29T10:42:01.841Z,11.6
2023-03-29T10:43:10.186Z,11.6
2023-03-29T10:44:00.681Z,11.7
2023-03-29T10:45:00.433Z,11.7
2023-03-29T10:46:10.214Z,11.6
2023-03-29T10:47:10.203Z,11.6
2023-03-29T10:48:02.908Z,11.5
2023-03-29T10:49:01.856Z,11.5
2023-03-29T10:50:04.506Z,11.5
2023-03-29T10:51:01.270Z,11.5
2023-03-29T10:52:00.268Z,11.6
2023-03-29T10:53:01.595Z,11.6
2023-03-29T10:54:00.916Z,11.7
2023-03-29T10:55:00.343Z,11.7
2023-03-29T10:56:01.284Z,11.7
2023-03-29T10:57:02.852Z,11.7
2023-03-29T10:58:10.227Z,11.4
2023-03-29T10:59:10.208Z,11.4
2023-03-29T11:00:02.648Z,11.6
2023-03-29T11:01:01.038Z,11.6
2023-03-29T11:02:00.340Z,11.5
2023-03-29T11:03:10.289Z,11.5
2023-03-29T11:04:10.305Z,11.7
2023-03-29T11:05:00.311Z,11.7
2023-03-29T11:06:10.199Z,11.8
2023-03-29T11:07:10.190Z,11.8
2023-03-29T11:08:08.348Z,11.9
2023-03-29T11:09:02.451Z,11.9
2023-03-29T11:10:10.209Z,12.2
2023-03-29T11:11:10.245Z,12.2
2023-03-29T11:12:15.119Z,12.3
2023-03-29T11:13:01.326Z,12.3
2023-03-29T11:14:06.875Z,12.5
2023-03-29T11:15:00.234Z,12.5
2023-03-29T11:16:00.289Z,12.5
2023-03-29T11:17:10.194Z,12.5
2023-03-29T11:18:10.232Z,12.7
2023-03-29T11:19:10.209Z,12.7
2023-03-29T11:20:10.186Z,12.7
2023-03-29T11:21:10.090Z,12.7
2023-03-29T11:22:00.249Z,12.7
2023-03-29T11:23:10.186Z,12.7
2023-03-29T11:24:00.238Z,12.8
2023-03-29T11:25:01.277Z,12.8
2023-03-29T11:26:10.206Z,12.8
2023-03-29T11:27:03.501Z,12.8
2023-03-29T11:28:10.205Z,12.9
2023-03-29T11:29:00.231Z,12.9
2023-03-29T11:30:07.921Z,13.2
2023-03-29T11:31:01.665Z,13.2
2023-03-29T11:32:10.198Z,12.9
2023-03-29T11:33:00.320Z,12.9
2023-03-29T11:34:00.249Z,12.9
2023-03-29T11:35:10.213Z,12.9
2023-03-29T11:36:03.549Z,12.9
2023-03-29T11:37:01.257Z,12.9
2023-03-29T11:38:10.207Z,13.0
2023-03-29T11:39:01.277Z,13.0
2023-03-29T11:40:03.525Z,13.1
2023-03-29T11:41:06.697Z,13.1
2023-03-29T11:42:05.299Z,13.1
2023-03-29T11:43:02.865Z,13.1
2023-03-29T11:44:02.862Z,13.1
2023-03-29T11:45:02.018Z,13.1
2023-03-29T11:46:03.528Z,13.1
2023-03-29T11:47:10.190Z,13.1
2023-03-29T11:48:01.685Z,13.1
2023-03-29T11:49:04.940Z,13.1
2023-03-29T11:50:10.270Z,13.2
2023-03-29T11:51:04.964Z,13.2
2023-03-29T11:52:10.201Z,13.1
2023-03-29T11:53:04.835Z,13.1
2023-03-29T11:54:09.292Z,13.1
2023-03-29T11:55:00.233Z,13.1
2023-03-29T11:56:05.520Z,13.1
2023-03-29T11:57:04.315Z,13.1
2023-03-29T11:58:03.720Z,13.1
2023-03-29T11:59:05.046Z,13.1
2023-03-29T12:00:00.259Z,13.1
2023-03-29T12:01:02.333Z,13.1
2023-03-29T12:02:08.986Z,13.1
2023-03-29T12:03:09.899Z,13.1
2023-03-29T12:04:05.158Z,13.0
2023-03-29T12:05:05.463Z,13.0
2023-03-29T12:06:02.931Z,13.2
2023-03-29T12:07:03.514Z,13.2
2023-03-29T12:08:10.210Z,13.2
2023-03-29T12:09:05.287Z,13.2
2023-03-29T12:10:10.243Z,13.4
2023-03-29T12:11:05.932Z,13.4
2023-03-29T12:12:10.257Z,13.3
2023-03-29T12:13:10.198Z,13.3
2023-03-29T12:14:04.565Z,13.5
2023-03-29T12:15:05.791Z,13.5
2023-03-29T12:16:05.630Z,13.3
2023-03-29T12:17:02.140Z,13.3
2023-03-29T12:18:10.239Z,13.4
2023-03-29T12:19:03.752Z,13.4
2023-03-29T12:20:04.007Z,13.3
2023-03-29T12:21:03.422Z,13.3
2023-03-29T12:22:00.884Z,13.3
2023-03-29T12:23:00.514Z,13.3
2023-03-29T12:24:00.317Z,13.4
2023-03-29T12:25:01.945Z,13.4
2023-03-29T12:26:10.197Z,13.5
2023-03-29T12:27:00.228Z,13.5
2023-03-29T12:28:10.184Z,13.4
2023-03-29T12:29:10.204Z,13.4
2023-03-29T12:30:03.519Z,13.4
2023-03-29T12:31:10.186Z,13.4
2023-03-29T12:32:10.305Z,13.5
2023-03-29T12:33:04.994Z,13.5
2023-03-29T12:34:09.196Z,13.5
2023-03-29T12:35:10.200Z,13.5
2023-03-29T12:36:03.549Z,13.5
2023-03-29T12:37:10.188Z,13.5
2023-03-29T12:38:10.189Z,13.4
2023-03-29T12:39:00.461Z,13.4
2023-03-29T12:40:10.190Z,13.6
2023-03-29T12:41:03.183Z,13.6
2023-03-29T12:42:10.185Z,13.5
2023-03-29T12:43:02.413Z,13.5
2023-03-29T12:44:01.451Z,13.5
2023-03-29T12:45:00.270Z,13.5
2023-03-29T12:46:05.729Z,13.6
2023-03-29T12:47:00.391Z,13.6
2023-03-29T12:48:00.594Z,13.6
2023-03-29T12:49:05.071Z,13.6
2023-03-29T12:50:00.601Z,13.6
2023-03-29T12:51:02.294Z,13.6
2023-03-29T12:52:02.302Z,13.8
2023-03-29T12:53:01.743Z,13.8
2023-03-29T12:54:10.200Z,13.8
2023-03-29T12:55:02.505Z,13.8
2023-03-29T12:56:01.780Z,13.7
2023-03-29T12:57:10.211Z,13.7
2023-03-29T12:58:03.621Z,13.8
2023-03-29T12:59:10.188Z,13.8
2023-03-29T13:00:09.453Z,13.9
2023-03-29T13:01:05.547Z,13.9
2023-03-29T13:02:10.239Z,13.9
2023-03-29T13:03:01.375Z,13.9
2023-03-29T13:04:00.281Z,14.0
2023-03-29T13:05:00.379Z,14.0
2023-03-29T13:06:02.070Z,14.4
2023-03-29T13:07:00.814Z,14.4
2023-03-29T13:08:10.107Z,14.5
2023-03-29T13:09:03.450Z,14.5
2023-03-29T13:10:01.750Z,14.7
2023-03-29T13:11:00.521Z,14.7
2023-03-29T13:12:10.218Z,14.8
2023-03-29T13:13:07.741Z,14.8
2023-03-29T13:14:01.542Z,14.9
2023-03-29T13:15:03.041Z,14.9
2023-03-29T13:16:09.272Z,14.9
2023-03-29T13:17:11.989Z,14.9
2023-03-29T13:18:12.284Z,14.9
2023-03-29T13:19:10.208Z,14.9
2023-03-29T13:20:08.629Z,15.0
2023-03-29T13:21:10.217Z,15.0
2023-03-29T13:22:01.253Z,15.0
2023-03-29T13:23:00.240Z,15.0
2023-03-29T13:24:10.188Z,14.9
2023-03-29T13:25:10.251Z,14.9
2023-03-29T13:26:00.501Z,14.9
2023-03-29T13:27:00.255Z,14.9
2023-03-29T13:28:08.232Z,14.9
2023-03-29T13:29:01.272Z,14.9
2023-03-29T13:30:10.188Z,15.0
2023-03-29T13:31:05.550Z,15.0
2023-03-29T13:32:10.187Z,14.9
2023-03-29T13:33:10.189Z,14.9
2023-03-29T13:34:03.884Z,14.9
2023-03-29T13:35:08.899Z,14.9
2023-03-29T13:36:00.463Z,14.9